createdAt,value
2023-07-26T00:03:48.601Z,17.25
2023-07-26T00:08:50.763Z,17.25
2023-07-26T00:13:52.842Z,17.27
2023-07-26T00:18:54.805Z,17.29
2023-07-26T00:23:57.203Z,17.27
2023-07-26T00:28:59.199Z,17.26
2023-07-26T00:34:02.160Z,17.29
2023-07-26T00:39:04.609Z,17.33
2023-07-26T00:44:06.877Z,17.38
2023-07-26T00:49:08.728Z,17.40
2023-07-26T00:54:11.136Z,17.41
2023-07-26T00:59:13.748Z,17.45
2023-07-26T01:04:15.625Z,17.48
2023-07-26T01:09:39.294Z,17.54
2023-07-26T01:14:48.764Z,17.57
2023-07-26T01:19:51.276Z,17.57
2023-07-26T01:24:53.392Z,17.55
2023-07-26T01:29:57.924Z,17.55
2023-07-26T01:34:59.964Z,17.55
2023-07-26T01:40:06.504Z,17.60
2023-07-26T01:45:10.480Z,17.59
2023-07-26T01:50:12.349Z,17.58
2023-07-26T01:55:14.457Z,17.55
2023-07-26T02:00:16.498Z,17.54
2023-07-26T02:05:18.600Z,17.55
2023-07-26T02:10:20.839Z,17.49
2023-07-26T02:15:22.758Z,17.43
2023-07-26T02:20:30.521Z,17.40
2023-07-26T02:25:32.384Z,17.38
2023-07-26T02:30:34.187Z,17.36
2023-07-26T02:35:36.284Z,17.32
2023-07-26T02:40:39.520Z,17.26
2023-07-26T02:45:41.462Z,17.22
2023-07-26T02:50:43.460Z,17.21
2023-07-26T02:55:45.566Z,17.18
2023-07-26T03:00:53.137Z,17.16
2023-07-26T03:05:57.833Z,17.16
2023-07-26T03:10:59.764Z,17.16
2023-07-26T03:16:01.857Z,17.15
2023-07-26T03:21:03.868Z,17.15
2023-07-26T03:26:05.919Z,17.18
2023-07-26T03:31:08.261Z,17.20
2023-07-26T03:36:10.765Z,17.19
2023-07-26T03:41:12.581Z,17.19
2023-07-26T03:46:14.464Z,17.16
2023-07-26T03:51:16.494Z,17.12
2023-07-26T03:56:18.488Z,17.08
2023-07-26T04:01:20.794Z,17.03
2023-07-26T04:06:22.809Z,17.01
2023-07-26T04:11:24.666Z,17.03
2023-07-26T04:16:26.587Z,17.01
2023-07-26T04:21:28.501Z,17.00
2023-07-26T04:26:30.591Z,16.98
2023-07-26T04:31:32.872Z,16.98
2023-07-26T04:36:35.282Z,16.97
2023-07-26T04:41:37.558Z,16.93
2023-07-26T04:46:39.456Z,16.88
2023-07-26T04:51:41.299Z,16.82
2023-07-26T04:56:44.401Z,16.70
2023-07-26T05:01:46.598Z,16.56
2023-07-26T05:06:49.282Z,16.45
2023-07-26T05:11:51.252Z,16.38
2023-07-26T05:16:53.473Z,16.36
2023-07-26T05:21:55.696Z,16.32
2023-07-26T05:26:59.440Z,16.29
2023-07-26T05:32:01.457Z,16.24
2023-07-26T05:37:04.165Z,16.22
2023-07-26T05:42:06.510Z,16.12
2023-07-26T05:47:10.629Z,15.99
2023-07-26T05:52:13.602Z,15.93
2023-07-26T05:57:15.551Z,15.84
2023-07-26T06:02:17.498Z,15.77
2023-07-26T06:07:21.349Z,15.76
2023-07-26T06:12:23.281Z,15.93
2023-07-26T06:17:25.618Z,16.17
2023-07-26T06:22:30.059Z,16.31
2023-07-26T06:27:32.238Z,16.28
2023-07-26T06:32:34.469Z,16.22
2023-07-26T06:37:37.110Z,16.22
2023-07-26T06:42:39.142Z,16.22
2023-07-26T06:47:41.178Z,16.15
2023-07-26T06:52:46.792Z,16.12
2023-07-26T06:57:48.820Z,16.10
2023-07-26T07:03:05.108Z,16.10
2023-07-26T07:08:07.070Z,16.09
2023-07-26T07:13:09.157Z,16.06
2023-07-26T07:18:15.828Z,16.04
2023-07-26T07:23:18.356Z,16.06
2023-07-26T07:28:21.244Z,16.08
2023-07-26T07:33:23.298Z,16.09
2023-07-26T07:38:25.585Z,16.08
2023-07-26T07:43:28.344Z,16.05
2023-07-26T07:48:30.356Z,16.04
2023-07-26T07:53:33.662Z,16.03
2023-07-26T07:58:35.807Z,16.02
2023-07-26T08:03:38.047Z,16.05
2023-07-26T08:08:40.753Z,16.12
2023-07-26T08:13:44.036Z,16.12
2023-07-26T08:18:47.217Z,16.08
2023-07-26T08:23:49.220Z,16.08
2023-07-26T08:28:51.774Z,16.06
2023-07-26T08:38:55.848Z,15.91
2023-07-26T08:44:01.498Z,15.70
2023-07-26T08:49:03.827Z,15.49
2023-07-26T08:54:05.847Z,15.34
2023-07-26T08:59:08.370Z,15.22
2023-07-26T09:04:11.559Z,15.14
2023-07-26T09:09:13.969Z,15.17
2023-07-26T09:14:17.702Z,15.28
2023-07-26T09:19:29.265Z,15.36
2023-07-26T09:24:37.488Z,15.38
2023-07-26T09:29:42.141Z,15.22
2023-07-26T09:34:46.028Z,15.07
2023-07-26T09:39:48.351Z,15.04
2023-07-26T09:44:59.819Z,15.12
2023-07-26T09:55:09.594Z,15.26
2023-07-26T10:00:13.902Z,15.26
2023-07-26T10:05:18.549Z,15.28
2023-07-26T10:10:23.085Z,15.30
2023-07-26T10:15:28.064Z,15.35
2023-07-26T10:20:32.121Z,15.40
2023-07-26T10:25:34.784Z,15.50
2023-07-26T10:30:38.771Z,15.53
2023-07-26T10:35:44.614Z,15.51
2023-07-26T10:40:46.830Z,15.53
2023-07-26T10:45:55.396Z,15.53
2023-07-26T10:50:58.613Z,15.54
2023-07-26T10:56:19.173Z,15.58
2023-07-26T11:01:41.198Z,15.64
2023-07-26T11:07:02.597Z,15.60
2023-07-26T11:12:11.640Z,15.57
2023-07-26T11:17:21.478Z,15.56
2023-07-26T11:22:23.481Z,15.51
2023-07-26T11:27:25.812Z,15.47
2023-07-26T11:32:29.597Z,15.40
2023-07-26T11:37:31.675Z,15.33
2023-07-26T11:42:34.677Z,15.28
2023-07-26T11:47:37.452Z,15.23
2023-07-26T11:52:39.737Z,15.23
2023-07-26T11:57:42.082Z,15.17
2023-07-26T12:02:44.385Z,15.09
2023-07-26T12:07:52.057Z,15.13
2023-07-26T12:13:00.589Z,15.17
2023-07-26T12:18:04.734Z,15.20
2023-07-26T12:23:06.662Z,15.23
2023-07-26T12:28:09.390Z,15.28
2023-07-26T12:33:13.741Z,15.34
2023-07-26T12:38:23.105Z,15.40
2023-07-26T12:43:31.601Z,15.46
2023-07-26T12:48:37.080Z,15.51
2023-07-26T12:53:39.416Z,15.52
2023-07-26T12:58:56.621Z,15.52
2023-07-26T13:04:04.899Z,15.49
2023-07-26T13:09:07.419Z,15.49
2023-07-26T13:14:09.827Z,15.52
2023-07-26T13:19:12.360Z,15.53
2023-07-26T13:24:14.309Z,15.55
2023-07-26T13:29:16.227Z,15.60
2023-07-26T13:34:19.797Z,15.67
2023-07-26T13:39:21.832Z,15.74
2023-07-26T13:44:23.686Z,15.80
2023-07-26T13:49:25.541Z,15.85
2023-07-26T13:54:27.508Z,15.91
2023-07-26T13:59:29.464Z,15.98
2023-07-26T14:04:32.855Z,15.97
2023-07-26T14:09:34.868Z,15.95
2023-07-26T14:14:38.766Z,15.96
2023-07-26T14:19:40.749Z,15.89
2023-07-26T14:24:42.585Z,15.77
2023-07-26T14:29:44.521Z,15.73
2023-07-26T14:34:46.373Z,15.79
2023-07-26T14:39:50.619Z,15.75
2023-07-26T14:44:52.982Z,15.73
2023-07-26T14:50:03.104Z,15.76
2023-07-26T14:55:06.126Z,15.74
2023-07-26T15:00:10.277Z,15.76
2023-07-26T15:05:12.241Z,15.79
2023-07-26T15:10:15.509Z,15.87
2023-07-26T15:15:19.521Z,15.94
2023-07-26T15:20:21.310Z,16.01
2023-07-26T15:25:23.270Z,16.09
2023-07-26T15:30:25.638Z,16.18
2023-07-26T15:35:31.762Z,16.26
2023-07-26T15:55:55.804Z,16.36
2023-07-26T16:00:58.994Z,16.34
2023-07-26T16:11:06.238Z,16.37
2023-07-26T16:21:13.892Z,16.48
2023-07-26T16:26:17.265Z,16.59
2023-07-26T16:31:19.331Z,16.65
2023-07-26T16:36:21.446Z,16.65
2023-07-26T16:41:23.462Z,16.68
2023-07-26T16:46:29.783Z,16.72
2023-07-26T16:51:39.502Z,16.79
2023-07-26T16:56:41.786Z,16.81
2023-07-26T17:01:44.374Z,16.76
2023-07-26T17:06:46.512Z,16.69
2023-07-26T17:11:48.797Z,16.64
2023-07-26T17:16:53.617Z,16.60
2023-07-26T17:21:55.694Z,16.54
2023-07-26T17:26:58.420Z,16.49
2023-07-26T17:32:00.318Z,16.40
2023-07-26T17:37:02.414Z,16.30
2023-07-26T17:42:04.818Z,16.22
2023-07-26T17:47:07.131Z,16.14
2023-07-26T17:52:09.095Z,16.04
2023-07-26T17:57:12.174Z,15.96
2023-07-26T18:02:14.311Z,15.89
2023-07-26T18:07:16.847Z,15.83
2023-07-26T18:12:18.862Z,15.74
2023-07-26T18:17:20.786Z,15.65
2023-07-26T18:22:23.984Z,15.59
2023-07-26T18:27:32.645Z,15.52
2023-07-26T18:32:34.621Z,15.42
2023-07-26T18:37:37.145Z,15.29
2023-07-26T18:42:39.568Z,15.17
2023-07-26T18:47:41.994Z,15.04
2023-07-26T18:52:44.448Z,14.92
2023-07-26T18:57:50.642Z,14.78
2023-07-26T19:02:52.895Z,14.64
2023-07-26T19:07:54.829Z,14.50
2023-07-26T19:12:56.997Z,14.40
2023-07-26T19:18:00.810Z,14.30
2023-07-26T19:23:04.452Z,14.22
2023-07-26T19:28:06.423Z,14.15
2023-07-26T19:33:08.642Z,14.09
2023-07-26T19:38:10.770Z,14.03
2023-07-26T19:43:12.896Z,13.97
2023-07-26T19:48:15.201Z,13.90
2023-07-26T19:53:19.523Z,13.84
2023-07-26T19:58:21.928Z,13.76
2023-07-26T20:03:26.543Z,13.69
2023-07-26T20:08:29.148Z,13.63
2023-07-26T20:13:31.262Z,13.58
2023-07-26T20:18:33.299Z,13.50
2023-07-26T20:23:35.907Z,13.43
2023-07-26T20:28:38.058Z,13.36
2023-07-26T20:33:40.442Z,13.29
2023-07-26T20:38:42.778Z,13.22
2023-07-26T20:43:44.780Z,13.16
2023-07-26T20:48:48.084Z,13.10
2023-07-26T20:53:49.862Z,13.03
2023-07-26T20:58:51.737Z,12.96
2023-07-26T21:03:53.964Z,12.91
2023-07-26T21:08:57.965Z,12.87
2023-07-26T21:14:03.026Z,12.85
2023-07-26T21:19:05.138Z,12.82
2023-07-26T21:24:07.151Z,12.79
2023-07-26T21:29:09.290Z,12.77
2023-07-26T21:34:11.164Z,12.75
2023-07-26T21:39:33.088Z,12.72
2023-07-26T21:44:35.261Z,12.71
2023-07-26T21:49:37.120Z,12.69
2023-07-26T21:54:39.107Z,12.67
2023-07-26T21:59:41.205Z,12.66
2023-07-26T22:04:43.391Z,12.67
2023-07-26T22:09:45.484Z,12.66
2023-07-26T22:14:47.651Z,12.63
2023-07-26T22:19:52.571Z,12.61
2023-07-26T22:24:54.562Z,12.59
2023-07-26T22:29:56.678Z,12.57
2023-07-26T22:34:58.497Z,12.57
2023-07-26T22:40:00.351Z,12.55
2023-07-26T22:45:02.370Z,12.48
2023-07-26T22:50:05.118Z,12.42
2023-07-26T22:55:08.168Z,12.40
2023-07-26T23:00:10.869Z,12.39
2023-07-26T23:05:14.274Z,12.38
2023-07-26T23:10:17.605Z,12.36
2023-07-26T23:15:19.658Z,12.36
2023-07-26T23:20:21.611Z,12.28
2023-07-26T23:25:24.386Z,12.12
2023-07-26T23:30:26.414Z,12.01
2023-07-26T23:35:49.865Z,11.92
2023-07-26T23:41:11.705Z,11.85
2023-07-26T23:46:13.816Z,11.84
2023-07-26T23:51:15.789Z,11.87
2023-07-26T23:56:17.711Z,11.82
